Time;durP1;ratioP1;P1;durP2;ratioP2;P2;SDS_P1;SDS_P2;PMS_P1;PMS_P2;Temp;Humidity;BMP_temperature;BMP_pressure;BME280_temperature;BME280_humidity;BME280_pressure;Samples;Min_cycle;Max_cycle;Signal;HPM_P1;HPM_P2
2023/09/06 00:00:29;;;;;;;3.63;1.90;;;;;;;;;;5020503;28;20215;-88
2023/09/06 00:02:58;;;;;;;2.60;1.80;;;;;;;;;;5019906;28;20229;-88
2023/09/06 00:05:27;;;;;;;2.03;1.75;;;;;;;;;;5020299;28;20475;-88
2023/09/06 00:07:54;;;;;;;1.80;1.70;;;;;;;;;;5018394;28;20240;-88
2023/09/06 00:10:21;;;;;;;3.05;1.80;;;;;;;;;;5019836;28;20363;-88
2023/09/06 00:12:48;;;;;;;1.88;1.70;;;;;;;;;;5018637;28;20308;-88
2023/09/06 00:15:18;;;;;;;2.30;1.63;;;;;;;;;;5019483;28;20225;-88
2023/09/06 00:17:45;;;;;;;1.70;1.60;;;;;;;;;;5020701;28;20212;-88
2023/09/06 00:20:19;;;;;;;1.70;1.60;;;;;;;;;;5021406;28;20217;-90
2023/09/06 00:22:55;;;;;;;1.70;1.60;;;;;;;;;;5015577;28;20211;-93
2023/09/06 00:25:22;;;;;;;2.08;1.90;;;;;;;;;;5021747;28;20207;-94
2023/09/06 00:27:50;;;;;;;2.20;1.45;;;;;;;;;;5019809;28;20319;-92
2023/09/06 00:30:18;;;;;;;3.78;1.83;;;;;;;;;;5022570;28;20200;-93
2023/09/06 00:32:45;;;;;;;1.80;1.70;;;;;;;;;;5021088;28;20227;-93
2023/09/06 00:35:13;;;;;;;2.30;1.60;;;;;;;;;;5020763;28;20264;-93
2023/09/06 00:37:41;;;;;;;1.80;1.70;;;;;;;;;;5019558;28;20204;-94
2023/09/06 00:40:14;;;;;;;1.95;1.52;;;;;;;;;;5021003;28;20215;-92
2023/09/06 00:42:41;;;;;;;2.58;1.95;;;;;;;;;;5022064;28;20207;-93
2023/09/06 00:45:09;;;;;;;5.63;1.95;;;;;;;;;;5026392;28;20212;-92
2023/09/06 00:47:36;;;;;;;2.17;1.90;;;;;;;;;;5024427;28;20204;-92
2023/09/06 00:50:04;;;;;;;2.10;1.88;;;;;;;;;;5024761;28;20207;-93
2023/09/06 00:52:32;;;;;;;1.67;1.58;;;;;;;;;;5024645;28;20226;-93
2023/09/06 00:55:01;;;;;;;1.70;1.60;;;;;;;;;;5023269;28;20200;-91
2023/09/06 00:57:30;;;;;;;2.13;1.85;;;;;;;;;;5024769;28;20216;-95
2023/09/06 00:59:59;;;;;;;1.63;1.52;;;;;;;;;;5019741;28;20220;-93
2023/09/06 01:02:26;;;;;;;2.65;1.90;;;;;;;;;;5023508;28;20280;-92
2023/09/06 01:04:54;;;;;;;2.13;1.92;;;;;;;;;;5025129;28;20259;-93
2023/09/06 01:07:21;;;;;;;1.83;1.73;;;;;;;;;;5024219;28;20601;-94
2023/09/06 01:09:49;;;;;;;3.58;1.70;;;;;;;;;;5026195;28;20242;-93
2023/09/06 01:12:16;;;;;;;2.00;1.90;;;;;;;;;;5027997;28;20201;-93
2023/09/06 01:14:45;;;;;;;2.03;1.92;;;;;;;;;;5022343;28;20295;-92
2023/09/06 01:17:14;;;;;;;2.75;1.63;;;;;;;;;;5024563;28;20224;-93
2023/09/06 01:19:44;;;;;;;2.20;2.00;;;;;;;;;;5020359;28;20239;-93
2023/09/06 01:22:17;;;;;;;1.70;1.60;;;;;;;;;;5027222;28;20291;-94
2023/09/06 01:24:46;;;;;;;2.35;1.90;;;;;;;;;;5023461;28;20208;-92
2023/09/06 01:27:14;;;;;;;3.15;1.75;;;;;;;;;;5028507;28;20232;-93
2023/09/06 01:29:41;;;;;;;2.10;1.88;;;;;;;;;;5024101;28;20221;-93
2023/09/06 01:32:08;;;;;;;4.07;1.67;;;;;;;;;;5023461;28;20304;-88
2023/09/06 01:34:35;;;;;;;3.17;1.65;;;;;;;;;;5022409;28;20262;-88
2023/09/06 01:37:02;;;;;;;3.63;1.85;;;;;;;;;;5022115;28;20228;-88
2023/09/06 01:39:30;;;;;;;3.35;1.80;;;;;;;;;;5023815;28;20215;-89
2023/09/06 01:41:58;;;;;;;1.67;1.58;;;;;;;;;;5021860;28;20302;-88
2023/09/06 01:44:26;;;;;;;4.85;1.90;;;;;;;;;;5019132;28;20212;-89
2023/09/06 01:46:54;;;;;;;3.28;1.70;;;;;;;;;;5021592;28;20210;-88
2023/09/06 01:49:21;;;;;;;3.00;1.98;;;;;;;;;;5021190;28;20214;-88
2023/09/06 01:51:49;;;;;;;2.33;1.60;;;;;;;;;;5022354;28;20235;-88
2023/09/06 01:54:16;;;;;;;2.00;1.90;;;;;;;;;;5023029;28;20243;-89
2023/09/06 01:56:44;;;;;;;1.75;1.65;;;;;;;;;;5023224;28;20215;-88
2023/09/06 01:59:12;;;;;;;2.47;1.90;;;;;;;;;;5021745;28;20289;-88
2023/09/06 02:01:40;;;;;;;1.92;1.80;;;;;;;;;;5022516;28;20216;-88
2023/09/06 02:04:07;;;;;;;2.83;1.92;;;;;;;;;;5021785;28;20212;-88
2023/09/06 02:06:34;;;;;;;2.20;1.83;;;;;;;;;;5022809;28;20208;-88
2023/09/06 02:09:02;;;;;;;3.65;1.67;;;;;;;;;;5022979;28;20212;-88
2023/09/06 02:11:31;;;;;;;2.38;1.98;;;;;;;;;;5023902;28;20204;-88
2023/09/06 02:13:58;;;;;;;2.05;1.90;;;;;;;;;;5019077;28;20207;-88
2023/09/06 02:16:26;;;;;;;2.28;1.92;;;;;;;;;;5021732;28;20228;-88
2023/09/06 02:18:54;;;;;;;2.10;1.90;;;;;;;;;;5020750;28;20291;-88
2023/09/06 02:21:21;;;;;;;2.25;1.80;;;;;;;;;;5027196;28;20219;-88
2023/09/06 02:23:48;;;;;;;2.03;1.88;;;;;;;;;;5026008;28;20227;-88
2023/09/06 02:26:16;;;;;;;3.80;2.08;;;;;;;;;;5022647;28;20286;-88
2023/09/06 02:28:44;;;;;;;4.43;2.00;;;;;;;;;;5024633;28;20207;-88
2023/09/06 02:31:11;;;;;;;1.90;1.80;;;;;;;;;;5022839;28;20204;-88
2023/09/06 02:33:40;;;;;;;4.13;2.13;;;;;;;;;;5023795;28;20330;-88
2023/09/06 02:36:07;;;;;;;2.30;2.10;;;;;;;;;;5019703;28;20320;-88
2023/09/06 02:38:34;;;;;;;2.40;1.75;;;;;;;;;;5021764;28;20200;-88
2023/09/06 02:41:01;;;;;;;1.95;1.80;;;;;;;;;;5023501;28;20232;-88
2023/09/06 02:43:29;;;;;;;2.92;2.10;;;;;;;;;;5021820;28;20208;-92
2023/09/06 02:46:02;;;;;;;2.13;1.90;;;;;;;;;;5019867;28;20200;-93
2023/09/06 02:48:29;;;;;;;2.08;1.83;;;;;;;;;;5021152;28;20212;-93
2023/09/06 02:50:59;;;;;;;3.17;2.10;;;;;;;;;;5020003;28;20196;-92
2023/09/06 02:53:26;;;;;;;2.40;2.20;;;;;;;;;;5022732;28;20207;-92
2023/09/06 02:55:54;;;;;;;3.17;2.22;;;;;;;;;;5019827;28;20212;-93
2023/09/06 02:58:24;;;;;;;3.70;2.10;;;;;;;;;;5022134;28;20200;-92
2023/09/06 03:00:55;;;;;;;3.70;1.92;;;;;;;;;;5019724;28;20215;-93
2023/09/06 03:03:23;;;;;;;3.28;2.10;;;;;;;;;;5020822;28;20255;-94
2023/09/06 03:05:53;;;;;;;3.22;1.88;;;;;;;;;;5023924;28;20239;-93
2023/09/06 03:08:25;;;;;;;2.13;1.95;;;;;;;;;;5020593;28;20238;-92
2023/09/06 03:10:53;;;;;;;2.17;1.98;;;;;;;;;;5023140;28;20227;-93
2023/09/06 03:13:20;;;;;;;2.40;2.20;;;;;;;;;;5018871;28;20262;-93
2023/09/06 03:15:51;;;;;;;2.92;1.75;;;;;;;;;;5021869;28;20218;-91
2023/09/06 03:18:18;;;;;;;1.92;1.70;;;;;;;;;;5017889;28;20208;-91
2023/09/06 03:20:46;;;;;;;3.22;2.13;;;;;;;;;;5020736;28;20208;-93
2023/09/06 03:23:24;;;;;;;2.22;2.00;;;;;;;;;;5021921;28;20204;-93
2023/09/06 03:25:54;;;;;;;3.33;2.10;;;;;;;;;;5016427;28;20218;-92
2023/09/06 03:28:22;;;;;;;2.17;1.90;;;;;;;;;;5020113;28;20291;-94
2023/09/06 03:30:49;;;;;;;2.78;1.90;;;;;;;;;;5018696;28;20259;-92
2023/09/06 03:33:16;;;;;;;2.20;1.98;;;;;;;;;;5019330;28;20262;-92
2023/09/06 03:35:45;;;;;;;2.15;1.95;;;;;;;;;;5018631;28;20213;-94
2023/09/06 03:38:15;;;;;;;2.15;2.05;;;;;;;;;;5019735;28;20220;-93
2023/09/06 03:40:42;;;;;;;2.08;1.88;;;;;;;;;;5019459;28;20215;-93
2023/09/06 03:43:14;;;;;;;2.08;1.98;;;;;;;;;;5021083;28;20702;-91
2023/09/06 03:45:44;;;;;;;2.13;1.90;;;;;;;;;;5022294;28;20208;-92
2023/09/06 03:48:12;;;;;;;2.00;1.90;;;;;;;;;;5024083;28;20207;-93
2023/09/06 03:50:40;;;;;;;1.70;1.60;;;;;;;;;;5020199;28;20208;-94
2023/09/06 03:53:07;;;;;;;2.90;1.77;;;;;;;;;;5021137;28;20213;-93
2023/09/06 03:55:34;;;;;;;2.53;1.80;;;;;;;;;;5027487;28;20209;-94
2023/09/06 03:58:07;;;;;;;2.35;2.08;;;;;;;;;;5020541;28;20243;-93
2023/09/06 04:00:39;;;;;;;2.17;2.08;;;;;;;;;;5020339;28;20235;-94
2023/09/06 04:03:07;;;;;;;3.17;1.90;;;;;;;;;;5022608;28;20208;-94
2023/09/06 04:05:35;;;;;;;2.10;1.90;;;;;;;;;;5017374;28;20208;-94
2023/09/06 04:08:04;;;;;;;3.17;2.05;;;;;;;;;;5017689;28;20211;-94
2023/09/06 04:10:36;;;;;;;4.15;2.40;;;;;;;;;;5017832;28;20219;-94
2023/09/06 04:13:04;;;;;;;2.20;2.00;;;;;;;;;;5020642;28;20215;-93
2023/09/06 04:15:34;;;;;;;2.97;2.00;;;;;;;;;;5017401;28;20240;-93
2023/09/06 04:18:03;;;;;;;2.47;2.15;;;;;;;;;;5013809;28;20311;-93
2023/09/06 04:20:31;;;;;;;2.53;2.10;;;;;;;;;;5014045;28;20330;-92
2023/09/06 04:22:59;;;;;;;1.90;1.80;;;;;;;;;;5015250;28;20208;-92
2023/09/06 04:25:27;;;;;;;4.18;2.00;;;;;;;;;;5020417;28;20295;-92
2023/09/06 04:27:55;;;;;;;2.17;1.98;;;;;;;;;;5023227;28;20203;-93
2023/09/06 04:30:24;;;;;;;2.40;1.92;;;;;;;;;;5020754;28;20222;-93
2023/09/06 04:32:51;;;;;;;2.35;2.15;;;;;;;;;;5022089;28;20217;-92
2023/09/06 04:35:22;;;;;;;2.17;1.88;;;;;;;;;;5020727;28;20208;-93
2023/09/06 04:37:49;;;;;;;2.53;2.33;;;;;;;;;;5024031;28;20252;-92
2023/09/06 04:40:19;;;;;;;2.85;2.15;;;;;;;;;;5019255;28;20205;-94
2023/09/06 04:42:46;;;;;;;2.13;1.98;;;;;;;;;;5021063;28;20211;-93
2023/09/06 04:45:13;;;;;;;2.15;2.00;;;;;;;;;;5029038;28;20216;-93
2023/09/06 04:47:43;;;;;;;2.42;2.05;;;;;;;;;;5025387;28;20228;-94
2023/09/06 04:50:12;;;;;;;2.42;2.13;;;;;;;;;;5021271;28;20232;-92
2023/09/06 04:52:45;;;;;;;3.67;2.00;;;;;;;;;;5023902;28;20281;-93
2023/09/06 04:55:13;;;;;;;2.70;1.90;;;;;;;;;;5023114;28;20228;-95
2023/09/06 04:57:41;;;;;;;3.75;1.90;;;;;;;;;;5032297;28;20640;-94
2023/09/06 05:00:16;;;;;;;2.40;2.20;;;;;;;;;;5023132;28;20246;-94
2023/09/06 05:02:44;;;;;;;2.90;2.40;;;;;;;;;;5030216;28;20214;-88
2023/09/06 05:05:13;;;;;;;2.55;2.35;;;;;;;;;;5027571;28;20219;-88
2023/09/06 05:07:42;;;;;;;2.30;2.10;;;;;;;;;;5026366;28;20196;-88
2023/09/06 05:10:11;;;;;;;2.40;2.20;;;;;;;;;;5024963;28;20227;-87
2023/09/06 05:12:38;;;;;;;2.90;1.88;;;;;;;;;;5025993;28;20204;-89
2023/09/06 05:15:05;;;;;;;2.88;2.05;;;;;;;;;;5020626;28;20212;-89
2023/09/06 05:17:33;;;;;;;2.78;2.58;;;;;;;;;;5023715;28;20231;-88
2023/09/06 05:20:15;;;;;;;2.33;2.13;;;;;;;;;;5020883;28;20311;-88
2023/09/06 05:22:44;;;;;;;2.17;1.98;;;;;;;;;;5021338;28;20295;-88
2023/09/06 05:25:12;;;;;;;2.30;2.10;;;;;;;;;;5022170;28;20204;-88
2023/09/06 05:27:39;;;;;;;2.35;2.10;;;;;;;;;;5019198;28;20201;-89
2023/09/06 05:30:07;;;;;;;2.03;1.92;;;;;;;;;;5021716;28;20208;-89
2023/09/06 05:32:34;;;;;;;2.58;2.28;;;;;;;;;;5021498;28;20200;-89
2023/09/06 05:35:03;;;;;;;2.78;2.03;;;;;;;;;;5024652;28;20232;-88
2023/09/06 05:37:30;;;;;;;2.10;2.00;;;;;;;;;;5026104;28;20232;-88
2023/09/06 05:39:59;;;;;;;2.30;2.20;;;;;;;;;;5021620;28;20229;-90
2023/09/06 05:42:27;;;;;;;5.07;2.33;;;;;;;;;;5021587;28;20205;-88
2023/09/06 05:44:54;;;;;;;2.40;2.20;;;;;;;;;;5023224;28;20212;-88
2023/09/06 05:47:21;;;;;;;2.33;2.13;;;;;;;;;;5028420;28;20231;-89
2023/09/06 05:49:51;;;;;;;2.70;2.40;;;;;;;;;;5023459;28;20224;-88
2023/09/06 05:52:18;;;;;;;3.58;2.42;;;;;;;;;;5029403;28;20213;-89
2023/09/06 05:54:48;;;;;;;2.30;2.10;;;;;;;;;;5009595;28;20208;-89
2023/09/06 05:57:24;;;;;;;2.50;2.10;;;;;;;;;;5020738;28;20332;-89
2023/09/06 05:59:55;;;;;;;2.45;2.10;;;;;;;;;;5023889;28;20300;-88
2023/09/06 06:02:25;;;;;;;2.90;2.38;;;;;;;;;;5033998;28;20224;-88
2023/09/06 06:04:53;;;;;;;2.38;2.03;;;;;;;;;;5023519;28;20204;-88
2023/09/06 06:07:21;;;;;;;2.30;2.20;;;;;;;;;;5028282;28;20204;-88
2023/09/06 06:09:52;;;;;;;2.88;2.45;;;;;;;;;;5029168;28;20204;-88
2023/09/06 06:12:22;;;;;;;2.38;2.17;;;;;;;;;;5026690;28;20297;-88
2023/09/06 06:14:50;;;;;;;2.20;2.00;;;;;;;;;;5029623;28;20218;-88
2023/09/06 06:17:24;;;;;;;2.55;2.10;;;;;;;;;;5032065;28;20212;-89
2023/09/06 06:19:51;;;;;;;3.55;2.40;;;;;;;;;;5023075;28;20262;-88
2023/09/06 06:22:19;;;;;;;3.70;2.40;;;;;;;;;;5019729;28;20204;-89
2023/09/06 06:24:50;;;;;;;3.00;2.20;;;;;;;;;;5028274;28;20301;-89
2023/09/06 06:27:19;;;;;;;3.63;2.45;;;;;;;;;;5025400;28;20389;-89
2023/09/06 06:29:51;;;;;;;2.33;2.10;;;;;;;;;;5018581;28;20205;-89
2023/09/06 06:32:20;;;;;;;2.17;2.05;;;;;;;;;;5019067;28;20220;-88
2023/09/06 06:34:50;;;;;;;2.30;2.10;;;;;;;;;;5018335;28;20327;-89
2023/09/06 06:37:18;;;;;;;2.20;2.03;;;;;;;;;;5024896;28;20225;-89
2023/09/06 06:39:46;;;;;;;2.55;2.35;;;;;;;;;;5025402;28;20209;-88
2023/09/06 06:42:13;;;;;;;3.03;2.65;;;;;;;;;;5025731;28;20280;-89
2023/09/06 06:44:46;;;;;;;2.50;2.30;;;;;;;;;;5021316;28;20212;-90
2023/09/06 06:47:15;;;;;;;4.55;2.55;;;;;;;;;;5014003;28;20228;-88
2023/09/06 06:49:43;;;;;;;3.08;2.33;;;;;;;;;;5024248;28;20226;-89
2023/09/06 06:52:11;;;;;;;2.28;2.08;;;;;;;;;;5026649;28;20215;-88
2023/09/06 06:54:41;;;;;;;2.08;1.98;;;;;;;;;;5021019;28;20208;-89
2023/09/06 06:57:09;;;;;;;2.35;2.15;;;;;;;;;;5023984;28;20212;-88
2023/09/06 06:59:36;;;;;;;3.20;2.17;;;;;;;;;;5023422;28;20216;-88
2023/09/06 07:02:13;;;;;;;2.15;2.00;;;;;;;;;;5021729;28;20204;-89
2023/09/06 07:04:42;;;;;;;2.40;2.20;;;;;;;;;;5019619;28;20246;-89
2023/09/06 07:07:10;;;;;;;3.03;2.30;;;;;;;;;;5027148;28;20204;-88
2023/09/06 07:09:37;;;;;;;2.28;2.08;;;;;;;;;;5019728;28;20232;-88
2023/09/06 07:12:05;;;;;;;2.92;2.15;;;;;;;;;;5026671;28;20235;-88
2023/09/06 07:14:35;;;;;;;4.28;2.40;;;;;;;;;;5022753;28;20208;-89
2023/09/06 07:17:06;;;;;;;2.53;2.20;;;;;;;;;;5026579;28;20211;-88
2023/09/06 07:19:34;;;;;;;2.17;2.08;;;;;;;;;;5027656;28;20192;-89
2023/09/06 07:22:04;;;;;;;2.83;2.38;;;;;;;;;;5026197;28;20232;-88
2023/09/06 07:24:31;;;;;;;3.80;2.15;;;;;;;;;;5019043;28;20205;-88
2023/09/06 07:26:59;;;;;;;3.05;2.20;;;;;;;;;;5022776;28;20207;-87
2023/09/06 07:29:26;;;;;;;2.25;2.05;;;;;;;;;;5019839;28;20205;-88
2023/09/06 07:31:57;;;;;;;3.35;2.28;;;;;;;;;;5022812;28;20211;-89
2023/09/06 07:34:25;;;;;;;2.42;2.10;;;;;;;;;;5021945;28;20274;-88
2023/09/06 07:36:52;;;;;;;2.33;2.13;;;;;;;;;;5020544;28;20212;-88
2023/09/06 07:39:23;;;;;;;3.65;2.40;;;;;;;;;;5025654;28;20290;-89
2023/09/06 07:41:55;;;;;;;2.33;2.13;;;;;;;;;;5024279;28;20204;-88
2023/09/06 07:44:24;;;;;;;3.65;2.17;;;;;;;;;;5021932;28;20211;-88
2023/09/06 07:46:51;;;;;;;2.55;2.35;;;;;;;;;;5024094;28;20219;-89
2023/09/06 07:49:19;;;;;;;2.60;2.40;;;;;;;;;;5025049;28;20213;-89
2023/09/06 07:51:46;;;;;;;2.40;2.22;;;;;;;;;;5025809;28;20204;-88
2023/09/06 07:54:14;;;;;;;2.47;2.25;;;;;;;;;;5023859;28;20278;-88
2023/09/06 07:56:47;;;;;;;3.05;2.30;;;;;;;;;;5022980;28;20200;-88
2023/09/06 07:59:21;;;;;;;2.15;2.05;;;;;;;;;;5025823;28;20314;-90
2023/09/06 08:01:49;;;;;;;3.90;2.30;;;;;;;;;;5024182;28;20210;-88
2023/09/06 08:04:19;;;;;;;4.07;2.17;;;;;;;;;;5020625;28;20227;-88
2023/09/06 08:06:47;;;;;;;2.83;2.20;;;;;;;;;;5021290;28;20219;-89
2023/09/06 08:09:17;;;;;;;2.55;2.35;;;;;;;;;;5019425;28;20287;-89
2023/09/06 08:11:46;;;;;;;3.15;2.22;;;;;;;;;;5025302;28;20274;-89
2023/09/06 08:14:16;;;;;;;3.28;2.35;;;;;;;;;;5018977;28;20216;-89
2023/09/06 08:16:45;;;;;;;3.25;2.58;;;;;;;;;;5025148;28;20209;-88
2023/09/06 08:19:12;;;;;;;4.22;3.08;;;;;;;;;;5024734;28;20284;-88
2023/09/06 08:21:42;;;;;;;6.65;4.65;;;;;;;;;;5024947;28;20208;-89
2023/09/06 08:24:10;;;;;;;3.63;2.92;;;;;;;;;;5026834;28;20224;-90
2023/09/06 08:26:37;;;;;;;3.67;2.53;;;;;;;;;;5026176;28;20212;-89
2023/09/06 08:29:07;;;;;;;2.88;2.55;;;;;;;;;;5025015;28;20200;-89
2023/09/06 08:31:34;;;;;;;3.75;2.60;;;;;;;;;;5018624;28;20235;-89
2023/09/06 08:34:04;;;;;;;2.50;2.15;;;;;;;;;;5022208;28;20208;-88
2023/09/06 08:36:33;;;;;;;4.07;2.50;;;;;;;;;;5024620;28;20208;-88
2023/09/06 08:39:00;;;;;;;4.93;2.30;;;;;;;;;;5023673;28;20232;-89
2023/09/06 08:41:28;;;;;;;4.72;2.45;;;;;;;;;;5025254;28;20204;-89
2023/09/06 08:43:56;;;;;;;2.70;2.33;;;;;;;;;;5024255;28;20212;-90
2023/09/06 08:46:29;;;;;;;2.53;2.33;;;;;;;;;;5028199;28;20226;-89
2023/09/06 08:49:00;;;;;;;2.97;2.42;;;;;;;;;;5024677;28;20208;-89
2023/09/06 08:51:35;;;;;;;2.50;2.30;;;;;;;;;;5023512;28;20212;-88
2023/09/06 08:54:06;;;;;;;3.60;2.20;;;;;;;;;;5024087;28;20207;-89
2023/09/06 08:56:38;;;;;;;2.65;2.45;;;;;;;;;;5025535;28;20204;-89
2023/09/06 08:59:13;;;;;;;4.32;2.65;;;;;;;;;;5026122;28;20230;-89
2023/09/06 09:01:45;;;;;;;4.93;2.30;;;;;;;;;;5025380;28;20215;-90
2023/09/06 09:04:21;;;;;;;3.92;2.35;;;;;;;;;;5026112;28;20204;-89
2023/09/06 09:06:49;;;;;;;3.65;2.58;;;;;;;;;;5030739;28;20234;-88
2023/09/06 09:09:17;;;;;;;5.07;2.10;;;;;;;;;;5028701;28;20200;-89
2023/09/06 09:11:55;;;;;;;3.92;2.65;;;;;;;;;;5028860;28;20207;-89
2023/09/06 09:14:31;;;;;;;3.88;2.42;;;;;;;;;;5031308;28;20211;-89
2023/09/06 09:17:07;;;;;;;5.13;2.53;;;;;;;;;;5028684;28;20208;-88
2023/09/06 09:19:37;;;;;;;2.50;2.30;;;;;;;;;;5031560;28;20226;-89
2023/09/06 09:22:07;;;;;;;3.35;2.50;;;;;;;;;;5027297;28;20200;-89
2023/09/06 09:24:35;;;;;;;3.42;2.40;;;;;;;;;;5028065;28;20262;-89
2023/09/06 09:27:03;;;;;;;2.60;2.40;;;;;;;;;;5029516;28;20211;-89
2023/09/06 09:29:30;;;;;;;2.80;2.45;;;;;;;;;;5031777;28;20250;-89
2023/09/06 09:32:12;;;;;;;2.80;2.50;;;;;;;;;;5027170;28;20212;-89
2023/09/06 09:34:49;;;;;;;3.15;2.15;;;;;;;;;;5027896;28;20253;-88
2023/09/06 09:37:22;;;;;;;3.10;2.78;;;;;;;;;;5030809;28;20208;-90
2023/09/06 09:39:49;;;;;;;2.97;2.67;;;;;;;;;;5030431;28;20220;-89
2023/09/06 09:42:22;;;;;;;3.60;2.63;;;;;;;;;;5030496;28;20266;-93
2023/09/06 09:45:01;;;;;;;2.70;2.50;;;;;;;;;;5032444;28;20276;-95
2023/09/06 09:47:36;;;;;;;2.72;2.53;;;;;;;;;;5036249;28;20271;-92
2023/09/06 09:50:11;;;;;;;3.03;2.30;;;;;;;;;;5037625;28;20638;-94
2023/09/06 09:52:42;;;;;;;3.55;2.83;;;;;;;;;;5034925;28;20199;-96
2023/09/06 09:55:10;;;;;;;2.78;2.58;;;;;;;;;;5030662;28;20223;-93
2023/09/06 09:57:40;;;;;;;2.83;2.63;;;;;;;;;;5042241;28;20208;-96
2023/09/06 10:00:39;;;;;;;2.55;2.35;;;;;;;;;;5044064;28;20286;-96
2023/09/06 10:03:13;;;;;;;5.30;2.45;;;;;;;;;;5035211;28;20215;-96
2023/09/06 10:08:51;;;;;;;3.10;2.58;;;;;;;;;;5042841;28;20197;-94
2023/09/06 10:14:06;;;;;;;4.13;2.40;;;;;;;;;;5031050;28;20235;-95
2023/09/06 10:16:35;;;;;;;2.80;2.55;;;;;;;;;;5036897;28;20204;-94
2023/09/06 10:19:05;;;;;;;2.70;2.50;;;;;;;;;;5027588;28;20232;-95
2023/09/06 10:21:40;;;;;;;2.80;2.50;;;;;;;;;;5028160;28;20216;-95
2023/09/06 10:24:12;;;;;;;2.83;2.63;;;;;;;;;;5034256;28;20242;-94
2023/09/06 10:26:43;;;;;;;2.85;2.60;;;;;;;;;;5032490;28;20204;-94
2023/09/06 10:29:19;;;;;;;3.28;2.53;;;;;;;;;;5034053;28;20295;-95
2023/09/06 10:31:51;;;;;;;3.00;2.80;;;;;;;;;;5031972;28;20232;-95
2023/09/06 10:34:20;;;;;;;3.15;2.55;;;;;;;;;;5029042;28;20260;-94
2023/09/06 10:36:52;;;;;;;2.88;2.63;;;;;;;;;;5018007;28;20224;-93
2023/09/06 10:39:23;;;;;;;2.47;2.28;;;;;;;;;;5023102;28;20289;-95
2023/09/06 10:42:09;;;;;;;5.35;2.50;;;;;;;;;;5021035;28;20263;-94
2023/09/06 10:44:51;;;;;;;2.92;2.67;;;;;;;;;;5030480;28;20204;-93
2023/09/06 10:47:28;;;;;;;2.80;2.60;;;;;;;;;;5029502;28;20204;-94
2023/09/06 10:50:13;;;;;;;2.63;2.42;;;;;;;;;;5025527;28;20231;-94
2023/09/06 10:52:41;;;;;;;3.38;2.80;;;;;;;;;;5023332;28;20218;-89
2023/09/06 10:55:13;;;;;;;2.80;2.60;;;;;;;;;;5023127;28;20239;-90
2023/09/06 10:57:51;;;;;;;2.72;2.53;;;;;;;;;;5025358;28;20215;-89
2023/09/06 11:00:19;;;;;;;3.35;2.47;;;;;;;;;;5020036;28;20223;-89
2023/09/06 11:03:00;;;;;;;2.78;2.58;;;;;;;;;;5022774;28;20213;-89
2023/09/06 11:05:35;;;;;;;2.70;2.50;;;;;;;;;;5022156;28;20478;-89
2023/09/06 11:08:04;;;;;;;2.85;2.50;;;;;;;;;;5019649;28;20268;-89
2023/09/06 11:10:31;;;;;;;2.88;2.53;;;;;;;;;;5026809;28;20216;-89
2023/09/06 11:12:59;;;;;;;2.70;2.50;;;;;;;;;;5020774;28;20294;-88
2023/09/06 11:15:26;;;;;;;2.97;2.72;;;;;;;;;;5029644;28;20208;-89
2023/09/06 11:17:58;;;;;;;3.28;3.08;;;;;;;;;;5027251;28;20234;-88
2023/09/06 11:20:26;;;;;;;3.03;2.72;;;;;;;;;;5024983;28;20289;-89
2023/09/06 11:22:56;;;;;;;3.17;2.88;;;;;;;;;;5026661;28;20208;-89
2023/09/06 11:25:23;;;;;;;2.97;2.42;;;;;;;;;;5029791;28;20208;-89
2023/09/06 11:27:59;;;;;;;2.70;2.50;;;;;;;;;;5021153;28;20272;-89
2023/09/06 11:30:31;;;;;;;2.83;2.63;;;;;;;;;;5021587;28;20235;-89
2023/09/06 11:32:58;;;;;;;3.78;2.63;;;;;;;;;;5027331;28;20262;-89
2023/09/06 11:35:27;;;;;;;2.78;2.58;;;;;;;;;;5025981;28;20243;-89
2023/09/06 11:38:07;;;;;;;3.10;2.78;;;;;;;;;;5031286;28;20283;-89
2023/09/06 11:40:35;;;;;;;3.47;2.65;;;;;;;;;;5022731;28;20316;-89
2023/09/06 11:43:04;;;;;;;2.88;2.67;;;;;;;;;;5030762;28;20282;-89
2023/09/06 11:45:32;;;;;;;3.08;2.80;;;;;;;;;;5029470;28;20300;-89
2023/09/06 11:48:04;;;;;;;2.75;2.55;;;;;;;;;;5027838;28;20222;-89
2023/09/06 11:50:34;;;;;;;3.03;2.72;;;;;;;;;;5030793;28;20209;-89
2023/09/06 11:53:04;;;;;;;2.38;2.28;;;;;;;;;;5023874;28;20214;-88
2023/09/06 11:55:33;;;;;;;2.80;2.60;;;;;;;;;;5027939;28;20231;-89
2023/09/06 11:58:00;;;;;;;2.83;2.60;;;;;;;;;;5023376;28;20223;-89
2023/09/06 12:00:38;;;;;;;3.58;2.67;;;;;;;;;;5024620;28;20223;-88
2023/09/06 12:03:13;;;;;;;2.78;2.58;;;;;;;;;;5019251;28;20219;-89
2023/09/06 12:05:42;;;;;;;2.72;2.53;;;;;;;;;;5020775;28;20242;-89
2023/09/06 12:08:13;;;;;;;2.95;2.75;;;;;;;;;;5018033;28;20215;-89
2023/09/06 12:10:43;;;;;;;2.97;2.78;;;;;;;;;;5020880;28;20207;-88
2023/09/06 12:13:11;;;;;;;2.70;2.50;;;;;;;;;;5028651;28;20211;-88
2023/09/06 12:15:39;;;;;;;2.80;2.60;;;;;;;;;;5022221;28;20270;-89
2023/09/06 12:18:07;;;;;;;3.35;2.83;;;;;;;;;;5021088;28;20299;-89
2023/09/06 12:20:37;;;;;;;3.70;2.65;;;;;;;;;;5029197;28;20219;-89
2023/09/06 12:23:05;;;;;;;2.92;2.67;;;;;;;;;;5027300;28;20222;-88
2023/09/06 12:25:34;;;;;;;2.78;2.58;;;;;;;;;;5021490;28;20228;-90
2023/09/06 12:28:03;;;;;;;3.03;2.60;;;;;;;;;;5017147;28;20265;-90
2023/09/06 12:30:30;;;;;;;3.03;2.72;;;;;;;;;;5023615;28;20299;-88
2023/09/06 12:32:57;;;;;;;2.88;2.58;;;;;;;;;;5022539;28;20291;-88
2023/09/06 12:35:25;;;;;;;2.80;2.50;;;;;;;;;;5022211;28;20237;-88
2023/09/06 12:37:52;;;;;;;3.05;2.85;;;;;;;;;;5021964;28;20287;-89
2023/09/06 12:40:27;;;;;;;3.05;2.60;;;;;;;;;;5023781;28;20316;-88
2023/09/06 12:42:56;;;;;;;2.58;2.40;;;;;;;;;;5024060;28;20206;-89
2023/09/06 12:45:26;;;;;;;2.70;2.50;;;;;;;;;;5026371;28;20207;-88
2023/09/06 12:47:59;;;;;;;3.33;3.00;;;;;;;;;;5026682;28;20342;-89
2023/09/06 12:50:27;;;;;;;3.00;2.70;;;;;;;;;;5026746;28;20204;-88
2023/09/06 12:52:54;;;;;;;2.63;2.40;;;;;;;;;;5027665;28;20295;-88
2023/09/06 12:55:26;;;;;;;2.60;2.40;;;;;;;;;;5030109;28;20209;-88
2023/09/06 12:57:53;;;;;;;3.22;2.92;;;;;;;;;;5025323;28;20211;-88
2023/09/06 13:00:22;;;;;;;2.60;2.40;;;;;;;;;;5026722;28;20216;-88
2023/09/06 13:02:49;;;;;;;2.45;2.30;;;;;;;;;;5024147;28;20201;-88
2023/09/06 13:05:19;;;;;;;2.97;2.78;;;;;;;;;;5030170;28;20209;-88
2023/09/06 13:07:49;;;;;;;2.85;2.65;;;;;;;;;;5027954;28;20209;-88
2023/09/06 13:10:17;;;;;;;2.72;2.53;;;;;;;;;;5029964;28;20215;-89
2023/09/06 13:12:44;;;;;;;2.72;2.53;;;;;;;;;;5027343;28;20273;-89
2023/09/06 13:15:16;;;;;;;3.38;2.53;;;;;;;;;;5027319;28;20290;-89
2023/09/06 13:17:45;;;;;;;3.05;2.85;;;;;;;;;;5027140;28;20208;-89
2023/09/06 13:20:13;;;;;;;3.58;2.50;;;;;;;;;;5023881;28;20306;-88
2023/09/06 13:22:41;;;;;;;2.78;2.58;;;;;;;;;;5027534;28;20296;-89
2023/09/06 13:25:09;;;;;;;3.05;2.83;;;;;;;;;;5029568;28;20294;-89
2023/09/06 13:27:38;;;;;;;2.90;2.70;;;;;;;;;;5023825;28;20216;-88
2023/09/06 13:30:05;;;;;;;2.67;2.47;;;;;;;;;;5025988;28;20266;-89
2023/09/06 13:32:33;;;;;;;3.67;2.78;;;;;;;;;;5026223;28;20231;-89
2023/09/06 13:35:02;;;;;;;2.90;2.70;;;;;;;;;;5022278;28;20306;-89
2023/09/06 13:37:29;;;;;;;3.25;2.58;;;;;;;;;;5025159;28;20212;-89
2023/09/06 13:39:57;;;;;;;2.80;2.60;;;;;;;;;;5020229;28;20224;-89
2023/09/06 13:42:27;;;;;;;2.55;2.42;;;;;;;;;;5021051;28;20209;-89
2023/09/06 13:44:55;;;;;;;2.80;2.60;;;;;;;;;;5030438;28;20204;-88
2023/09/06 13:47:22;;;;;;;2.78;2.55;;;;;;;;;;5030743;28;20206;-88
2023/09/06 13:49:50;;;;;;;2.60;2.40;;;;;;;;;;5029834;28;20720;-88
2023/09/06 13:52:19;;;;;;;3.50;2.70;;;;;;;;;;5020756;28;20230;-88
2023/09/06 13:54:46;;;;;;;23.25;4.53;;;;;;;;;;5030118;28;20218;-89
2023/09/06 13:57:14;;;;;;;4.13;2.75;;;;;;;;;;5025996;28;20200;-89
2023/09/06 13:59:41;;;;;;;3.42;2.63;;;;;;;;;;5025086;28;20224;-89
2023/09/06 14:02:09;;;;;;;3.25;2.55;;;;;;;;;;5020192;28;20300;-89
2023/09/06 14:04:36;;;;;;;3.00;2.80;;;;;;;;;;5025846;28;20352;-89
2023/09/06 14:07:03;;;;;;;2.70;2.50;;;;;;;;;;5024669;28;20232;-88
2023/09/06 14:09:32;;;;;;;3.03;2.70;;;;;;;;;;5024613;28;20226;-89
2023/09/06 14:11:59;;;;;;;3.70;2.83;;;;;;;;;;5022117;28;20205;-89
2023/09/06 14:14:27;;;;;;;4.70;2.78;;;;;;;;;;5020421;28;20283;-88
2023/09/06 14:16:54;;;;;;;2.67;2.47;;;;;;;;;;5022913;28;20209;-89
2023/09/06 14:19:22;;;;;;;3.63;2.83;;;;;;;;;;5028112;28;20295;-89
2023/09/06 14:21:51;;;;;;;3.05;2.50;;;;;;;;;;5026660;28;20199;-95
2023/09/06 14:24:19;;;;;;;3.35;2.90;;;;;;;;;;5024859;28;20226;-95
2023/09/06 14:26:48;;;;;;;3.53;2.50;;;;;;;;;;5033386;28;20207;-95
2023/09/06 14:29:16;;;;;;;3.10;2.80;;;;;;;;;;5026751;28;20218;-94
2023/09/06 14:31:43;;;;;;;2.70;2.50;;;;;;;;;;5022877;28;20208;-94
2023/09/06 14:34:10;;;;;;;6.53;3.05;;;;;;;;;;5027161;28;20230;-94
2023/09/06 14:36:38;;;;;;;5.32;3.13;;;;;;;;;;5023814;28;20204;-96
2023/09/06 14:39:06;;;;;;;7.68;2.92;;;;;;;;;;5024779;28;20207;-95
2023/09/06 14:41:34;;;;;;;5.28;2.78;;;;;;;;;;5024964;28;20251;-95
2023/09/06 14:44:03;;;;;;;4.03;2.92;;;;;;;;;;5021459;28;20438;-93
2023/09/06 14:46:30;;;;;;;3.42;2.63;;;;;;;;;;5008652;28;20224;-94
2023/09/06 14:48:57;;;;;;;12.38;3.20;;;;;;;;;;5022378;28;20235;-95
2023/09/06 14:51:25;;;;;;;6.20;2.75;;;;;;;;;;5022349;28;20232;-95
2023/09/06 14:53:54;;;;;;;3.50;2.63;;;;;;;;;;5023396;28;20231;-93
2023/09/06 14:56:22;;;;;;;3.92;2.70;;;;;;;;;;5020011;28;20209;-93
2023/09/06 14:58:50;;;;;;;3.83;2.55;;;;;;;;;;5018830;28;20306;-94
2023/09/06 15:01:18;;;;;;;2.50;2.38;;;;;;;;;;5024333;28;20247;-95